sensor_id;sensor_type;location;lat;lon;timestamp;P1;durP1;ratioP1;P2;durP2;ratioP2
47289;SDS011;33197;52.524;13.444;2023-06-24T00:01:05;11.77;;;9.15;;
47289;SDS011;33197;52.524;13.444;2023-06-24T00:03:33;13.77;;;9.95;;
47289;SDS011;33197;52.524;13.444;2023-06-24T00:06:04;13.73;;;10.55;;
47289;SDS011;33197;52.524;13.444;2023-06-24T00:08:31;15.65;;;10.65;;
47289;SDS011;33197;52.524;13.444;2023-06-24T00:11:01;13.75;;;10.77;;
47289;SDS011;33197;52.524;13.444;2023-06-24T00:13:29;12.80;;;10.73;;
47289;SDS011;33197;52.524;13.444;2023-06-24T00:15:56;12.60;;;10.88;;
47289;SDS011;33197;52.524;13.444;2023-06-24T00:18:24;15.32;;;11.27;;
47289;SDS011;33197;52.524;13.444;2023-06-24T00:20:51;12.88;;;9.88;;
47289;SDS011;33197;52.524;13.444;2023-06-24T00:23:20;25.65;;;11.95;;
47289;SDS011;33197;52.524;13.444;2023-06-24T00:25:52;16.27;;;11.52;;
47289;SDS011;33197;52.524;13.444;2023-06-24T00:28:20;11.68;;;10.48;;
47289;SDS011;33197;52.524;13.444;2023-06-24T00:30:47;15.90;;;11.80;;
47289;SDS011;33197;52.524;13.444;2023-06-24T00:33:15;20.42;;;12.00;;
47289;SDS011;33197;52.524;13.444;2023-06-24T00:35:47;17.00;;;13.27;;
47289;SDS011;33197;52.524;13.444;2023-06-24T00:38:14;14.77;;;13.27;;
47289;SDS011;33197;52.524;13.444;2023-06-24T00:40:42;16.80;;;14.05;;
47289;SDS011;33197;52.524;13.444;2023-06-24T00:43:09;18.15;;;14.75;;
47289;SDS011;33197;52.524;13.444;2023-06-24T00:45:37;18.00;;;15.50;;
47289;SDS011;33197;52.524;13.444;2023-06-24T00:48:04;23.63;;;17.13;;
47289;SDS011;33197;52.524;13.444;2023-06-24T00:50:32;26.00;;;17.20;;
47289;SDS011;33197;52.524;13.444;2023-06-24T00:53:00;21.27;;;17.48;;
47289;SDS011;33197;52.524;13.444;2023-06-24T00:55:27;24.75;;;18.35;;
47289;SDS011;33197;52.524;13.444;2023-06-24T00:57:55;25.05;;;18.67;;
47289;SDS011;33197;52.524;13.444;2023-06-24T01:00:24;25.15;;;17.83;;
47289;SDS011;33197;52.524;13.444;2023-06-24T01:02:51;21.40;;;17.65;;
47289;SDS011;33197;52.524;13.444;2023-06-24T01:05:19;27.63;;;17.65;;
47289;SDS011;33197;52.524;13.444;2023-06-24T01:07:51;22.23;;;16.42;;
47289;SDS011;33197;52.524;13.444;2023-06-24T01:10:22;23.05;;;17.08;;
47289;SDS011;33197;52.524;13.444;2023-06-24T01:12:50;20.60;;;17.95;;
47289;SDS011;33197;52.524;13.444;2023-06-24T01:15:18;24.48;;;17.75;;
47289;SDS011;33197;52.524;13.444;2023-06-24T01:20:31;24.95;;;16.73;;
47289;SDS011;33197;52.524;13.444;2023-06-24T01:32:19;25.33;;;16.55;;
47289;SDS011;33197;52.524;13.444;2023-06-24T01:37:40;20.08;;;15.77;;
47289;SDS011;33197;52.524;13.444;2023-06-24T01:40:13;22.67;;;17.15;;
47289;SDS011;33197;52.524;13.444;2023-06-24T01:42:44;17.30;;;15.52;;
47289;SDS011;33197;52.524;13.444;2023-06-24T01:45:14;20.40;;;16.25;;
47289;SDS011;33197;52.524;13.444;2023-06-24T01:47:44;19.58;;;15.98;;
47289;SDS011;33197;52.524;13.444;2023-06-24T01:50:13;17.48;;;14.85;;
47289;SDS011;33197;52.524;13.444;2023-06-24T01:52:42;16.13;;;13.45;;
47289;SDS011;33197;52.524;13.444;2023-06-24T01:55:11;17.50;;;15.20;;
47289;SDS011;33197;52.524;13.444;2023-06-24T01:57:40;17.58;;;15.68;;
47289;SDS011;33197;52.524;13.444;2023-06-24T02:00:08;22.10;;;15.07;;
47289;SDS011;33197;52.524;13.444;2023-06-24T02:02:36;21.15;;;15.13;;
47289;SDS011;33197;52.524;13.444;2023-06-24T02:05:05;17.52;;;15.25;;
47289;SDS011;33197;52.524;13.444;2023-06-24T02:07:33;21.95;;;16.95;;
47289;SDS011;33197;52.524;13.444;2023-06-24T02:10:01;20.88;;;15.40;;
47289;SDS011;33197;52.524;13.444;2023-06-24T02:12:30;18.02;;;16.10;;
47289;SDS011;33197;52.524;13.444;2023-06-24T02:14:58;17.25;;;14.93;;
47289;SDS011;33197;52.524;13.444;2023-06-24T02:17:26;16.80;;;15.02;;
47289;SDS011;33197;52.524;13.444;2023-06-24T02:19:56;18.90;;;15.77;;
47289;SDS011;33197;52.524;13.444;2023-06-24T02:22:24;17.13;;;15.32;;
47289;SDS011;33197;52.524;13.444;2023-06-24T02:24:51;20.30;;;15.10;;
47289;SDS011;33197;52.524;13.444;2023-06-24T02:27:19;17.73;;;13.98;;
47289;SDS011;33197;52.524;13.444;2023-06-24T02:29:47;20.25;;;15.32;;
47289;SDS011;33197;52.524;13.444;2023-06-24T02:32:14;17.52;;;14.45;;
47289;SDS011;33197;52.524;13.444;2023-06-24T02:34:41;17.02;;;13.57;;
47289;SDS011;33197;52.524;13.444;2023-06-24T02:37:09;15.80;;;14.20;;
47289;SDS011;33197;52.524;13.444;2023-06-24T02:39:36;21.95;;;13.50;;
47289;SDS011;33197;52.524;13.444;2023-06-24T02:42:06;15.35;;;13.82;;
47289;SDS011;33197;52.524;13.444;2023-06-24T02:44:33;15.10;;;13.63;;
47289;SDS011;33197;52.524;13.444;2023-06-24T02:47:01;17.15;;;13.32;;
47289;SDS011;33197;52.524;13.444;2023-06-24T02:49:28;21.35;;;14.48;;
47289;SDS011;33197;52.524;13.444;2023-06-24T02:51:56;13.90;;;12.45;;
47289;SDS011;33197;52.524;13.444;2023-06-24T02:54:24;18.95;;;13.85;;
47289;SDS011;33197;52.524;13.444;2023-06-24T02:56:51;15.10;;;13.50;;
47289;SDS011;33197;52.524;13.444;2023-06-24T02:59:19;16.80;;;13.27;;
47289;SDS011;33197;52.524;13.444;2023-06-24T03:01:49;17.83;;;14.07;;
47289;SDS011;33197;52.524;13.444;2023-06-24T03:04:18;21.48;;;14.55;;
47289;SDS011;33197;52.524;13.444;2023-06-24T03:06:46;17.95;;;13.75;;
47289;SDS011;33197;52.524;13.444;2023-06-24T03:09:13;19.13;;;14.85;;
47289;SDS011;33197;52.524;13.444;2023-06-24T03:11:42;14.90;;;12.45;;
47289;SDS011;33197;52.524;13.444;2023-06-24T03:14:10;18.67;;;13.63;;
47289;SDS011;33197;52.524;13.444;2023-06-24T03:16:38;17.05;;;13.05;;
47289;SDS011;33197;52.524;13.444;2023-06-24T03:19:05;14.63;;;12.85;;
47289;SDS011;33197;52.524;13.444;2023-06-24T03:21:33;14.93;;;13.35;;
47289;SDS011;33197;52.524;13.444;2023-06-24T03:24:00;21.38;;;13.38;;
47289;SDS011;33197;52.524;13.444;2023-06-24T03:26:31;18.63;;;13.55;;
47289;SDS011;33197;52.524;13.444;2023-06-24T03:28:59;13.68;;;12.20;;
47289;SDS011;33197;52.524;13.444;2023-06-24T03:31:28;22.20;;;14.05;;
47289;SDS011;33197;52.524;13.444;2023-06-24T03:33:55;15.40;;;12.68;;
47289;SDS011;33197;52.524;13.444;2023-06-24T03:36:22;14.05;;;12.55;;
47289;SDS011;33197;52.524;13.444;2023-06-24T03:38:51;16.02;;;13.23;;
47289;SDS011;33197;52.524;13.444;2023-06-24T03:41:18;16.75;;;13.35;;
47289;SDS011;33197;52.524;13.444;2023-06-24T03:43:46;13.65;;;11.70;;
47289;SDS011;33197;52.524;13.444;2023-06-24T03:46:13;15.60;;;11.90;;
47289;SDS011;33197;52.524;13.444;2023-06-24T03:48:41;14.43;;;12.27;;
47289;SDS011;33197;52.524;13.444;2023-06-24T03:51:08;16.98;;;13.00;;
47289;SDS011;33197;52.524;13.444;2023-06-24T03:53:35;17.45;;;13.63;;
47289;SDS011;33197;52.524;13.444;2023-06-24T03:56:02;18.20;;;11.27;;
47289;SDS011;33197;52.524;13.444;2023-06-24T03:58:30;15.25;;;12.43;;
47289;SDS011;33197;52.524;13.444;2023-06-24T04:00:59;17.23;;;13.65;;
47289;SDS011;33197;52.524;13.444;2023-06-24T04:03:26;15.48;;;12.93;;
47289;SDS011;33197;52.524;13.444;2023-06-24T04:05:57;22.52;;;14.20;;
47289;SDS011;33197;52.524;13.444;2023-06-24T04:08:24;18.65;;;13.90;;
47289;SDS011;33197;52.524;13.444;2023-06-24T04:10:58;18.52;;;13.68;;
47289;SDS011;33197;52.524;13.444;2023-06-24T04:13:30;21.08;;;12.90;;
47289;SDS011;33197;52.524;13.444;2023-06-24T04:16:01;17.17;;;12.85;;
47289;SDS011;33197;52.524;13.444;2023-06-24T04:18:28;18.23;;;12.20;;
47289;SDS011;33197;52.524;13.444;2023-06-24T04:20:56;14.90;;;12.32;;
47289;SDS011;33197;52.524;13.444;2023-06-24T04:23:24;14.65;;;13.15;;
47289;SDS011;33197;52.524;13.444;2023-06-24T04:25:51;14.25;;;11.13;;
47289;SDS011;33197;52.524;13.444;2023-06-24T04:28:19;15.70;;;13.27;;
47289;SDS011;33197;52.524;13.444;2023-06-24T04:30:46;17.58;;;13.00;;
47289;SDS011;33197;52.524;13.444;2023-06-24T04:33:13;20.52;;;12.77;;
47289;SDS011;33197;52.524;13.444;2023-06-24T04:35:40;15.50;;;12.68;;
47289;SDS011;33197;52.524;13.444;2023-06-24T04:38:07;15.65;;;13.55;;
47289;SDS011;33197;52.524;13.444;2023-06-24T04:40:35;17.10;;;13.38;;
47289;SDS011;33197;52.524;13.444;2023-06-24T04:43:02;16.70;;;13.90;;
47289;SDS011;33197;52.524;13.444;2023-06-24T04:45:30;18.50;;;12.80;;
47289;SDS011;33197;52.524;13.444;2023-06-24T04:47:57;14.02;;;11.60;;
47289;SDS011;33197;52.524;13.444;2023-06-24T04:50:24;18.45;;;12.77;;
47289;SDS011;33197;52.524;13.444;2023-06-24T04:52:52;14.27;;;12.82;;
47289;SDS011;33197;52.524;13.444;2023-06-24T04:55:21;17.17;;;13.52;;
47289;SDS011;33197;52.524;13.444;2023-06-24T04:57:49;16.83;;;12.52;;
47289;SDS011;33197;52.524;13.444;2023-06-24T05:00:16;13.63;;;12.18;;
47289;SDS011;33197;52.524;13.444;2023-06-24T05:02:44;18.60;;;11.80;;
47289;SDS011;33197;52.524;13.444;2023-06-24T05:05:12;13.27;;;11.57;;
47289;SDS011;33197;52.524;13.444;2023-06-24T05:07:39;16.67;;;12.30;;
47289;SDS011;33197;52.524;13.444;2023-06-24T05:10:07;21.02;;;12.70;;
47289;SDS011;33197;52.524;13.444;2023-06-24T05:12:34;15.13;;;12.25;;
47289;SDS011;33197;52.524;13.444;2023-06-24T05:15:01;14.60;;;11.65;;
47289;SDS011;33197;52.524;13.444;2023-06-24T05:17:29;14.45;;;11.00;;
47289;SDS011;33197;52.524;13.444;2023-06-24T05:19:56;11.48;;;10.32;;
47289;SDS011;33197;52.524;13.444;2023-06-24T05:22:24;13.55;;;11.27;;
47289;SDS011;33197;52.524;13.444;2023-06-24T05:24:51;13.05;;;10.82;;
47289;SDS011;33197;52.524;13.444;2023-06-24T05:27:18;13.15;;;11.07;;
47289;SDS011;33197;52.524;13.444;2023-06-24T05:29:46;13.55;;;11.57;;
47289;SDS011;33197;52.524;13.444;2023-06-24T05:32:13;16.80;;;10.82;;
47289;SDS011;33197;52.524;13.444;2023-06-24T05:34:40;11.98;;;10.07;;
47289;SDS011;33197;52.524;13.444;2023-06-24T05:37:08;15.13;;;10.15;;
47289;SDS011;33197;52.524;13.444;2023-06-24T05:39:35;13.50;;;10.98;;
47289;SDS011;33197;52.524;13.444;2023-06-24T05:42:02;15.57;;;11.23;;
47289;SDS011;33197;52.524;13.444;2023-06-24T05:44:30;13.25;;;9.65;;
47289;SDS011;33197;52.524;13.444;2023-06-24T05:46:58;14.25;;;11.30;;
47289;SDS011;33197;52.524;13.444;2023-06-24T05:49:25;14.48;;;11.48;;
47289;SDS011;33197;52.524;13.444;2023-06-24T05:51:52;13.95;;;9.32;;
47289;SDS011;33197;52.524;13.444;2023-06-24T05:54:20;18.65;;;10.65;;
47289;SDS011;33197;52.524;13.444;2023-06-24T05:56:47;11.93;;;10.38;;
47289;SDS011;33197;52.524;13.444;2023-06-24T05:59:14;17.58;;;10.15;;
47289;SDS011;33197;52.524;13.444;2023-06-24T06:01:41;18.83;;;10.75;;
47289;SDS011;33197;52.524;13.444;2023-06-24T06:04:09;14.23;;;10.55;;
47289;SDS011;33197;52.524;13.444;2023-06-24T06:06:36;12.90;;;10.23;;
47289;SDS011;33197;52.524;13.444;2023-06-24T06:09:03;17.50;;;10.45;;
47289;SDS011;33197;52.524;13.444;2023-06-24T06:11:31;10.27;;;9.15;;
47289;SDS011;33197;52.524;13.444;2023-06-24T06:13:59;13.20;;;9.35;;
47289;SDS011;33197;52.524;13.444;2023-06-24T06:16:26;13.30;;;9.45;;
47289;SDS011;33197;52.524;13.444;2023-06-24T06:18:55;24.60;;;10.48;;
47289;SDS011;33197;52.524;13.444;2023-06-24T06:21:22;13.30;;;9.95;;
47289;SDS011;33197;52.524;13.444;2023-06-24T06:23:50;11.55;;;8.88;;
47289;SDS011;33197;52.524;13.444;2023-06-24T06:26:18;14.77;;;10.15;;
47289;SDS011;33197;52.524;13.444;2023-06-24T06:28:47;15.52;;;9.18;;
47289;SDS011;33197;52.524;13.444;2023-06-24T06:31:14;10.38;;;8.52;;
47289;SDS011;33197;52.524;13.444;2023-06-24T06:33:43;38.25;;;10.93;;
47289;SDS011;33197;52.524;13.444;2023-06-24T06:36:10;12.57;;;8.85;;
47289;SDS011;33197;52.524;13.444;2023-06-24T06:38:38;10.90;;;9.15;;
47289;SDS011;33197;52.524;13.444;2023-06-24T06:41:05;12.32;;;9.60;;
47289;SDS011;33197;52.524;13.444;2023-06-24T06:43:33;13.38;;;8.63;;
47289;SDS011;33197;52.524;13.444;2023-06-24T06:46:00;13.20;;;8.00;;
47289;SDS011;33197;52.524;13.444;2023-06-24T06:48:28;14.80;;;8.70;;
47289;SDS011;33197;52.524;13.444;2023-06-24T06:50:55;14.68;;;9.35;;
47289;SDS011;33197;52.524;13.444;2023-06-24T06:53:23;13.35;;;9.30;;
47289;SDS011;33197;52.524;13.444;2023-06-24T06:55:50;10.50;;;8.35;;
47289;SDS011;33197;52.524;13.444;2023-06-24T06:58:17;14.43;;;8.63;;
47289;SDS011;33197;52.524;13.444;2023-06-24T07:00:44;14.15;;;8.90;;
47289;SDS011;33197;52.524;13.444;2023-06-24T07:03:12;10.70;;;7.25;;
47289;SDS011;33197;52.524;13.444;2023-06-24T07:05:39;14.75;;;8.35;;
47289;SDS011;33197;52.524;13.444;2023-06-24T07:08:07;11.60;;;7.55;;
47289;SDS011;33197;52.524;13.444;2023-06-24T07:10:34;12.32;;;7.70;;
47289;SDS011;33197;52.524;13.444;2023-06-24T07:13:01;13.60;;;8.55;;
47289;SDS011;33197;52.524;13.444;2023-06-24T07:15:29;10.52;;;7.95;;
47289;SDS011;33197;52.524;13.444;2023-06-24T07:17:56;10.63;;;7.38;;
47289;SDS011;33197;52.524;13.444;2023-06-24T07:20:24;14.35;;;8.35;;
47289;SDS011;33197;52.524;13.444;2023-06-24T07:22:51;14.38;;;8.18;;
47289;SDS011;33197;52.524;13.444;2023-06-24T07:25:18;14.07;;;8.40;;
47289;SDS011;33197;52.524;13.444;2023-06-24T07:27:46;8.65;;;6.82;;
47289;SDS011;33197;52.524;13.444;2023-06-24T07:30:13;11.40;;;6.78;;
47289;SDS011;33197;52.524;13.444;2023-06-24T07:32:40;14.32;;;7.38;;
47289;SDS011;33197;52.524;13.444;2023-06-24T07:35:08;12.13;;;7.25;;
47289;SDS011;33197;52.524;13.444;2023-06-24T07:37:35;13.88;;;8.85;;
47289;SDS011;33197;52.524;13.444;2023-06-24T07:40:02;10.25;;;7.20;;
47289;SDS011;33197;52.524;13.444;2023-06-24T07:42:31;10.15;;;6.95;;
47289;SDS011;33197;52.524;13.444;2023-06-24T07:44:58;11.88;;;6.72;;
47289;SDS011;33197;52.524;13.444;2023-06-24T07:47:25;11.60;;;6.10;;
47289;SDS011;33197;52.524;13.444;2023-06-24T07:49:53;8.30;;;6.50;;
47289;SDS011;33197;52.524;13.444;2023-06-24T07:52:20;8.65;;;6.63;;
47289;SDS011;33197;52.524;13.444;2023-06-24T07:54:47;11.25;;;5.85;;
47289;SDS011;33197;52.524;13.444;2023-06-24T07:57:15;7.53;;;5.97;;
47289;SDS011;33197;52.524;13.444;2023-06-24T07:59:42;8.50;;;5.07;;
47289;SDS011;33197;52.524;13.444;2023-06-24T08:02:09;7.97;;;5.35;;
47289;SDS011;33197;52.524;13.444;2023-06-24T08:04:37;6.95;;;5.13;;
47289;SDS011;33197;52.524;13.444;2023-06-24T08:07:04;10.27;;;5.43;;
47289;SDS011;33197;52.524;13.444;2023-06-24T08:09:32;5.53;;;3.92;;
47289;SDS011;33197;52.524;13.444;2023-06-24T08:11:59;6.18;;;4.72;;
47289;SDS011;33197;52.524;13.444;2023-06-24T08:14:26;6.63;;;4.43;;
47289;SDS011;33197;52.524;13.444;2023-06-24T08:16:53;11.80;;;5.40;;
47289;SDS011;33197;52.524;13.444;2023-06-24T08:19:21;6.15;;;4.35;;
47289;SDS011;33197;52.524;13.444;2023-06-24T08:21:48;6.40;;;4.55;;
47289;SDS011;33197;52.524;13.444;2023-06-24T08:24:15;10.75;;;5.00;;
47289;SDS011;33197;52.524;13.444;2023-06-24T08:42:14;7.60;;;5.22;;
47289;SDS011;33197;52.524;13.444;2023-06-24T08:48:48;15.15;;;5.07;;
47289;SDS011;33197;52.524;13.444;2023-06-24T08:51:18;5.32;;;4.32;;
47289;SDS011;33197;52.524;13.444;2023-06-24T08:53:48;7.55;;;4.75;;
47289;SDS011;33197;52.524;13.444;2023-06-24T08:56:16;6.97;;;4.00;;
47289;SDS011;33197;52.524;13.444;2023-06-24T08:58:44;6.10;;;4.70;;
47289;SDS011;33197;52.524;13.444;2023-06-24T09:01:11;8.57;;;4.68;;
47289;SDS011;33197;52.524;13.444;2023-06-24T09:03:38;11.98;;;4.50;;
47289;SDS011;33197;52.524;13.444;2023-06-24T09:06:06;6.15;;;4.07;;
47289;SDS011;33197;52.524;13.444;2023-06-24T09:08:33;6.63;;;4.13;;
47289;SDS011;33197;52.524;13.444;2023-06-24T09:11:03;8.45;;;5.03;;
47289;SDS011;33197;52.524;13.444;2023-06-24T09:13:34;10.32;;;5.03;;
47289;SDS011;33197;52.524;13.444;2023-06-24T09:16:12;8.23;;;4.45;;
47289;SDS011;33197;52.524;13.444;2023-06-24T09:18:41;6.13;;;4.93;;
47289;SDS011;33197;52.524;13.444;2023-06-24T09:21:10;6.15;;;4.18;;
47289;SDS011;33197;52.524;13.444;2023-06-24T09:23:37;8.25;;;4.68;;
47289;SDS011;33197;52.524;13.444;2023-06-24T09:26:09;6.63;;;4.38;;
47289;SDS011;33197;52.524;13.444;2023-06-24T09:28:37;8.55;;;4.43;;
47289;SDS011;33197;52.524;13.444;2023-06-24T09:31:08;6.05;;;5.28;;
47289;SDS011;33197;52.524;13.444;2023-06-24T09:33:46;7.82;;;4.07;;
47289;SDS011;33197;52.524;13.444;2023-06-24T09:36:14;9.13;;;4.60;;
47289;SDS011;33197;52.524;13.444;2023-06-24T09:38:43;7.72;;;4.70;;
47289;SDS011;33197;52.524;13.444;2023-06-24T09:41:13;5.32;;;3.88;;
47289;SDS011;33197;52.524;13.444;2023-06-24T09:43:41;9.10;;;4.60;;
47289;SDS011;33197;52.524;13.444;2023-06-24T09:46:11;10.45;;;4.30;;
47289;SDS011;33197;52.524;13.444;2023-06-24T09:48:38;7.00;;;3.70;;
47289;SDS011;33197;52.524;13.444;2023-06-24T09:51:06;6.57;;;3.80;;
47289;SDS011;33197;52.524;13.444;2023-06-24T09:53:34;8.10;;;4.18;;
47289;SDS011;33197;52.524;13.444;2023-06-24T09:56:05;11.40;;;3.63;;
47289;SDS011;33197;52.524;13.444;2023-06-24T09:58:35;5.22;;;3.80;;
47289;SDS011;33197;52.524;13.444;2023-06-24T10:01:03;8.20;;;4.13;;
47289;SDS011;33197;52.524;13.444;2023-06-24T10:03:32;6.18;;;3.83;;
47289;SDS011;33197;52.524;13.444;2023-06-24T10:06:02;9.43;;;3.83;;
47289;SDS011;33197;52.524;13.444;2023-06-24T10:08:30;5.85;;;3.70;;
47289;SDS011;33197;52.524;13.444;2023-06-24T10:10:58;3.75;;;3.20;;
47289;SDS011;33197;52.524;13.444;2023-06-24T10:13:26;5.13;;;3.78;;
47289;SDS011;33197;52.524;13.444;2023-06-24T10:15:54;5.18;;;3.17;;
47289;SDS011;33197;52.524;13.444;2023-06-24T10:18:32;8.00;;;3.50;;
47289;SDS011;33197;52.524;13.444;2023-06-24T10:21:01;3.80;;;3.00;;
47289;SDS011;33197;52.524;13.444;2023-06-24T10:23:30;4.07;;;3.40;;
47289;SDS011;33197;52.524;13.444;2023-06-24T10:26:08;7.93;;;3.30;;
47289;SDS011;33197;52.524;13.444;2023-06-24T10:37:02;8.80;;;3.47;;
47289;SDS011;33197;52.524;13.444;2023-06-24T10:44:58;3.85;;;3.17;;
47289;SDS011;33197;52.524;13.444;2023-06-24T10:47:27;5.97;;;3.35;;
47289;SDS011;33197;52.524;13.444;2023-06-24T10:49:55;4.93;;;4.03;;
47289;SDS011;33197;52.524;13.444;2023-06-24T10:52:22;4.00;;;3.03;;
47289;SDS011;33197;52.524;13.444;2023-06-24T10:54:50;6.78;;;3.50;;
47289;SDS011;33197;52.524;13.444;2023-06-24T10:57:25;4.32;;;3.17;;
47289;SDS011;33197;52.524;13.444;2023-06-24T10:59:54;7.82;;;3.67;;
47289;SDS011;33197;52.524;13.444;2023-06-24T11:02:24;4.45;;;3.28;;
47289;SDS011;33197;52.524;13.444;2023-06-24T11:04:53;8.57;;;3.85;;
47289;SDS011;33197;52.524;13.444;2023-06-24T11:07:21;8.57;;;3.88;;
47289;SDS011;33197;52.524;13.444;2023-06-24T11:09:50;4.35;;;3.55;;
47289;SDS011;33197;52.524;13.444;2023-06-24T11:12:18;4.72;;;3.53;;
47289;SDS011;33197;52.524;13.444;2023-06-24T11:14:46;6.63;;;3.55;;
47289;SDS011;33197;52.524;13.444;2023-06-24T11:17:13;4.85;;;3.50;;
47289;SDS011;33197;52.524;13.444;2023-06-24T11:19:40;5.03;;;3.17;;
47289;SDS011;33197;52.524;13.444;2023-06-24T11:22:08;4.97;;;3.58;;
47289;SDS011;33197;52.524;13.444;2023-06-24T11:24:35;4.28;;;3.47;;
47289;SDS011;33197;52.524;13.444;2023-06-24T11:27:03;4.13;;;3.53;;
47289;SDS011;33197;52.524;13.444;2023-06-24T11:29:31;5.15;;;3.60;;
47289;SDS011;33197;52.524;13.444;2023-06-24T11:32:00;4.85;;;3.40;;
47289;SDS011;33197;52.524;13.444;2023-06-24T11:34:29;12.05;;;3.38;;
47289;SDS011;33197;52.524;13.444;2023-06-24T11:36:56;4.85;;;3.28;;
47289;SDS011;33197;52.524;13.444;2023-06-24T11:39:24;13.02;;;3.95;;
47289;SDS011;33197;52.524;13.444;2023-06-24T11:41:52;5.78;;;3.85;;
47289;SDS011;33197;52.524;13.444;2023-06-24T11:44:20;4.18;;;3.45;;
47289;SDS011;33197;52.524;13.444;2023-06-24T11:46:48;4.05;;;3.65;;
47289;SDS011;33197;52.524;13.444;2023-06-24T11:49:15;8.02;;;3.55;;
47289;SDS011;33197;52.524;13.444;2023-06-24T11:51:49;5.15;;;3.67;;
47289;SDS011;33197;52.524;13.444;2023-06-24T11:54:17;4.20;;;3.50;;
47289;SDS011;33197;52.524;13.444;2023-06-24T11:56:50;4.57;;;3.72;;
47289;SDS011;33197;52.524;13.444;2023-06-24T11:59:22;4.05;;;3.30;;
47289;SDS011;33197;52.524;13.444;2023-06-24T12:01:54;5.30;;;3.90;;
47289;SDS011;33197;52.524;13.444;2023-06-24T12:04:29;4.85;;;3.80;;
47289;SDS011;33197;52.524;13.444;2023-06-24T12:06:57;6.75;;;3.67;;
47289;SDS011;33197;52.524;13.444;2023-06-24T12:09:25;8.57;;;3.88;;
47289;SDS011;33197;52.524;13.444;2023-06-24T12:11:53;6.95;;;4.50;;
47289;SDS011;33197;52.524;13.444;2023-06-24T12:14:20;4.97;;;3.35;;
47289;SDS011;33197;52.524;13.444;2023-06-24T12:16:47;6.50;;;3.63;;
47289;SDS011;33197;52.524;13.444;2023-06-24T12:19:15;4.43;;;3.80;;
47289;SDS011;33197;52.524;13.444;2023-06-24T12:21:42;6.40;;;3.30;;
47289;SDS011;33197;52.524;13.444;2023-06-24T12:24:09;5.72;;;3.42;;
47289;SDS011;33197;52.524;13.444;2023-06-24T12:26:37;4.70;;;3.45;;
47289;SDS011;33197;52.524;13.444;2023-06-24T12:29:04;4.88;;;3.45;;
47289;SDS011;33197;52.524;13.444;2023-06-24T12:31:31;7.57;;;3.28;;
47289;SDS011;33197;52.524;13.444;2023-06-24T12:33:58;5.03;;;3.67;;
47289;SDS011;33197;52.524;13.444;2023-06-24T12:36:26;4.35;;;3.50;;
47289;SDS011;33197;52.524;13.444;2023-06-24T12:38:53;5.43;;;3.40;;
47289;SDS011;33197;52.524;13.444;2023-06-24T12:41:20;5.93;;;3.95;;
47289;SDS011;33197;52.524;13.444;2023-06-24T12:43:48;6.28;;;3.72;;
47289;SDS011;33197;52.524;13.444;2023-06-24T12:46:15;3.55;;;3.22;;
47289;SDS011;33197;52.524;13.444;2023-06-24T12:48:43;4.85;;;3.42;;
47289;SDS011;33197;52.524;13.444;2023-06-24T12:51:10;4.45;;;3.42;;
47289;SDS011;33197;52.524;13.444;2023-06-24T12:53:38;5.30;;;3.40;;
47289;SDS011;33197;52.524;13.444;2023-06-24T12:56:05;9.55;;;3.67;;
47289;SDS011;33197;52.524;13.444;2023-06-24T12:58:32;4.75;;;3.70;;
47289;SDS011;33197;52.524;13.444;2023-06-24T13:00:59;6.65;;;4.13;;
47289;SDS011;33197;52.524;13.444;2023-06-24T13:03:27;9.25;;;3.05;;
47289;SDS011;33197;52.524;13.444;2023-06-24T13:05:54;3.40;;;3.00;;
47289;SDS011;33197;52.524;13.444;2023-06-24T13:08:21;6.18;;;3.90;;
47289;SDS011;33197;52.524;13.444;2023-06-24T13:10:49;6.35;;;4.00;;
47289;SDS011;33197;52.524;13.444;2023-06-24T13:13:16;5.10;;;4.15;;
47289;SDS011;33197;52.524;13.444;2023-06-24T13:15:43;4.40;;;3.45;;
47289;SDS011;33197;52.524;13.444;2023-06-24T13:18:10;5.93;;;3.33;;
47289;SDS011;33197;52.524;13.444;2023-06-24T13:20:39;7.47;;;3.72;;
47289;SDS011;33197;52.524;13.444;2023-06-24T13:23:06;6.10;;;3.95;;
47289;SDS011;33197;52.524;13.444;2023-06-24T13:25:33;5.53;;;3.92;;
47289;SDS011;33197;52.524;13.444;2023-06-24T13:28:01;4.45;;;3.95;;
47289;SDS011;33197;52.524;13.444;2023-06-24T13:30:29;4.97;;;3.40;;
47289;SDS011;33197;52.524;13.444;2023-06-24T13:32:56;3.67;;;3.38;;
47289;SDS011;33197;52.524;13.444;2023-06-24T13:43:33;6.13;;;3.42;;
47289;SDS011;33197;52.524;13.444;2023-06-24T13:46:00;5.75;;;3.65;;
47289;SDS011;33197;52.524;13.444;2023-06-24T13:48:27;7.95;;;4.47;;
47289;SDS011;33197;52.524;13.444;2023-06-24T13:50:55;5.53;;;3.95;;
47289;SDS011;33197;52.524;13.444;2023-06-24T13:53:22;6.65;;;3.90;;
47289;SDS011;33197;52.524;13.444;2023-06-24T13:55:49;3.92;;;3.35;;
47289;SDS011;33197;52.524;13.444;2023-06-24T13:58:21;4.38;;;3.35;;
47289;SDS011;33197;52.524;13.444;2023-06-24T14:00:48;6.03;;;3.05;;
47289;SDS011;33197;52.524;13.444;2023-06-24T14:03:16;4.97;;;3.72;;
47289;SDS011;33197;52.524;13.444;2023-06-24T14:05:43;5.38;;;3.97;;
47289;SDS011;33197;52.524;13.444;2023-06-24T14:08:10;5.78;;;3.85;;
47289;SDS011;33197;52.524;13.444;2023-06-24T14:10:37;8.25;;;4.22;;
47289;SDS011;33197;52.524;13.444;2023-06-24T14:13:05;4.10;;;3.55;;
47289;SDS011;33197;52.524;13.444;2023-06-24T14:15:32;4.97;;;3.72;;
47289;SDS011;33197;52.524;13.444;2023-06-24T14:17:59;5.20;;;3.70;;
47289;SDS011;33197;52.524;13.444;2023-06-24T14:20:26;5.03;;;3.92;;
47289;SDS011;33197;52.524;13.444;2023-06-24T14:22:54;5.82;;;3.78;;
47289;SDS011;33197;52.524;13.444;2023-06-24T14:25:21;4.80;;;4.32;;
47289;SDS011;33197;52.524;13.444;2023-06-24T14:27:48;6.00;;;3.65;;
47289;SDS011;33197;52.524;13.444;2023-06-24T14:30:16;4.95;;;3.70;;
47289;SDS011;33197;52.524;13.444;2023-06-24T14:32:43;7.30;;;4.50;;
47289;SDS011;33197;52.524;13.444;2023-06-24T14:35:10;4.15;;;3.70;;
47289;SDS011;33197;52.524;13.444;2023-06-24T14:37:38;11.00;;;4.38;;
47289;SDS011;33197;52.524;13.444;2023-06-24T14:40:05;6.53;;;3.53;;
47289;SDS011;33197;52.524;13.444;2023-06-24T14:42:33;5.50;;;3.85;;
47289;SDS011;33197;52.524;13.444;2023-06-24T14:45:02;4.00;;;3.65;;
47289;SDS011;33197;52.524;13.444;2023-06-24T14:47:29;9.70;;;4.25;;
47289;SDS011;33197;52.524;13.444;2023-06-24T14:49:57;4.82;;;3.50;;
47289;SDS011;33197;52.524;13.444;2023-06-24T14:52:24;4.43;;;3.47;;
47289;SDS011;33197;52.524;13.444;2023-06-24T14:54:51;8.95;;;4.10;;
47289;SDS011;33197;52.524;13.444;2023-06-24T14:57:18;7.47;;;4.13;;
47289;SDS011;33197;52.524;13.444;2023-06-24T14:59:47;6.63;;;3.92;;
47289;SDS011;33197;52.524;13.444;2023-06-24T15:02:14;6.38;;;4.50;;
47289;SDS011;33197;52.524;13.444;2023-06-24T15:04:42;7.65;;;4.40;;
47289;SDS011;33197;52.524;13.444;2023-06-24T15:07:09;6.88;;;5.05;;
47289;SDS011;33197;52.524;13.444;2023-06-24T15:09:37;6.15;;;5.55;;
47289;SDS011;33197;52.524;13.444;2023-06-24T15:12:04;6.47;;;5.53;;
47289;SDS011;33197;52.524;13.444;2023-06-24T15:14:32;7.28;;;6.57;;
47289;SDS011;33197;52.524;13.444;2023-06-24T15:16:59;7.75;;;6.95;;
47289;SDS011;33197;52.524;13.444;2023-06-24T15:19:27;8.93;;;8.10;;
47289;SDS011;33197;52.524;13.444;2023-06-24T15:21:54;10.90;;;10.23;;